Bearcat — WV8240 — position and weather

sailwx.info

Track history (hours):
 
Tides and Currents Weather Stations Pressure Air Temp Water Temp Dewpoint Dewpoint Depression Visibility Wind Speed Wind Dir Waves Ship Positions

Bearcat

Owner: WESTAR MARINE SERVICE, SAN FRANCISCO, CA. More information available from US FCC via Universal Licensing System and Coast Guard Vessel Documentation Center.

Last reported at 2017-Oct-18 02:00 UTC. Time now 2017-Oct-18 02:23 UTC.
Position N 47°54' W 122°28'.

; draft 2.7 m.

Type: Towing. MMSI: 366969780.

Date/timePositionNaut miles runAvg speedWind from/ knotsBaromVisibWave heightAir tempDewpointWater temp
2017-Oct-18 02:00N 47°54' W 122°28'5 9.2
2017-Oct-18 01:30N 47°49' W 122°27'4 8.2
2017-Oct-18 01:00N 47°45' W 122°26'4 7.8
2017-Oct-18 00:30N 47°41' W 122°27'4 7.3
2017-Oct-18 00:00N 47°38' W 122°25'3 6.2
2017-Oct-17 23:30N 47°36' W 122°22'1 1.3
2017-Oct-17 23:00N 47°35' W 122°21'1 2.4
2017-Oct-17 22:30N 47°34' W 122°21'0 0.0
2017-Oct-17 22:00N 47°34' W 122°21'  
2017-Oct-15 04:49N 47°34' W 122°21'1 4.1
2017-Oct-15 04:31N 47°35' W 122°21'1 1.1
2017-Oct-15 04:00N 47°36' W 122°22'3 5.2
2017-Oct-15 03:30N 47°37' W 122°25'4 7.9
2017-Oct-15 03:00N 47°40' W 122°28'4 7.9
2017-Oct-15 02:31N 47°44' W 122°27'4 8.0
2017-Oct-15 02:01N 47°48' W 122°28'4 7.8
2017-Oct-15 01:30N 47°52' W 122°29'4 7.0
2017-Oct-15 01:00N 47°55' W 122°31'3 6.4
2017-Oct-15 00:30N 47°57' W 122°35'26 6.5
2017-Oct-14 20:29N 48°22' W 122°46'4 7.3
2017-Oct-14 19:58N 48°26' W 122°44'3 6.5
2017-Oct-14 19:31N 48°29' W 122°44'3 5.7
2017-Oct-14 18:58N 48°32' W 122°41'2 5.4
2017-Oct-14 18:31N 48°34' W 122°40'3 5.3
2017-Oct-14 18:01N 48°36' W 122°38'7 7.3
2017-Oct-14 16:59N 48°43' W 122°33'1 2.4
2017-Oct-14 16:30N 48°44' W 122°33'1 2.1
2017-Oct-14 16:00N 48°44' W 122°31'1 1.6
2017-Oct-14 15:23N 48°44' W 122°32'0 0.0
2017-Oct-14 14:44N 48°44' W 122°32'0 0.2
2017-Oct-14 14:30N 48°44' W 122°33'0 0.0
2017-Oct-14 13:51N 48°44' W 122°33'0 0.0
2017-Oct-14 13:22N 48°44' W 122°33'0 0.1
2017-Oct-14 12:55N 48°44' W 122°32'0 0.1
2017-Oct-14 12:25N 48°44' W 122°32'1 1.5
2017-Oct-14 11:59N 48°44' W 122°31'1 1.2
2017-Oct-14 11:23N 48°44' W 122°32'0 0.3
2017-Oct-14 11:00N 48°44' W 122°33'4 4.4
2017-Oct-14 10:02N 48°40' W 122°33'0 1.0
2017-Oct-14 09:55N 48°40' W 122°33'1 2.7
2017-Oct-14 09:29N 48°39' W 122°33'3 7.4
2017-Oct-14 09:00N 48°37' W 122°38'4 7.1
2017-Oct-14 08:30N 48°34' W 122°40'4 7.3
2017-Oct-14 08:00N 48°31' W 122°43'3 6.5
2017-Oct-14 07:31N 48°28' W 122°44'5 8.1
2017-Oct-14 06:54N 48°23' W 122°45'24 7.2
2017-Oct-14 03:31N 47°59' W 122°35'1 8.9
2017-Oct-14 03:26N 47°59' W 122°34'3 8.0
2017-Oct-14 03:00N 47°56' W 122°31'4 8.4
2017-Oct-14 02:30N 47°53' W 122°28'4 8.7
2017-Oct-14 02:00N 47°49' W 122°26'5 8.7
2017-Oct-14 01:28N 47°44' W 122°26'4 8.7
2017-Oct-14 01:00N 47°40' W 122°27'4 8.1
2017-Oct-14 00:28N 47°36' W 122°23'2 3.2
2017-Oct-13 23:58N 47°35' W 122°21'0 0.5
2017-Oct-13 23:23N 47°35' W 122°22'1 3.1
2017-Oct-13 23:00N 47°34' W 122°21'0 0.0
2017-Oct-12 23:39N 47°34' W 122°21'0 0.6
2017-Oct-12 23:30N 47°34' W 122°21'1 2.4
2017-Oct-12 23:00N 47°35' W 122°21'0 0.0
2017-Oct-12 22:30N 47°35' W 122°21'0 0.0
2017-Oct-12 22:01N 47°35' W 122°21'0 0.0
2017-Oct-12 21:30N 47°35' W 122°21'1 2.4
2017-Oct-12 21:00N 47°34' W 122°21'0 0.8
2017-Oct-12 20:29N 47°34' W 122°21'0 0.0
2017-Oct-12 19:59N 47°34' W 122°21'0 0.0
2017-Oct-12 19:28N 47°34' W 122°21'0 0.0
2017-Oct-12 19:00N 47°34' W 122°21'0 0.0
2017-Oct-12 18:30N 47°34' W 122°21'0 0.0
2017-Oct-12 18:01N 47°34' W 122°21'0 0.0
2017-Oct-12 17:30N 47°34' W 122°21'0 0.0
2017-Oct-12 17:01N 47°34' W 122°21'0 0.0
2017-Oct-12 16:30N 47°34' W 122°21'0 0.0
2017-Oct-12 16:00N 47°34' W 122°21'0 0.0
2017-Oct-12 15:30N 47°34' W 122°21'0 0.0
2017-Oct-12 15:00N 47°34' W 122°21'0 0.0
2017-Oct-12 14:28N 47°34' W 122°21'0 0.0
2017-Oct-12 13:58N 47°34' W 122°21'0 0.9
2017-Oct-12 13:30N 47°34' W 122°21'1 2.4
2017-Oct-12 13:00N 47°35' W 122°21'0 0.0
2017-Oct-12 12:31N 47°35' W 122°21'1 1.3
2017-Oct-12 12:01N 47°35' W 122°22'1 0.1
2017-Oct-12 04:14N 47°34' W 122°21'0 1.3
2017-Oct-12 04:00N 47°34' W 122°21'1 2.1
2017-Oct-12 03:30N 47°35' W 122°21'1 1.9
2017-Oct-12 03:00N 47°36' W 122°22'1 2.6
2017-Oct-12 02:30N 47°37' W 122°24'4 8.2
2017-Oct-12 02:00N 47°40' W 122°28'4 8.3
2017-Oct-12 01:30N 47°44' W 122°28'4 8.4
2017-Oct-12 01:00N 47°48' W 122°28'4 8.5
2017-Oct-12 00:30N 47°52' W 122°29'4 8.0
2017-Oct-12 00:00N 47°56' W 122°31'30 6.9
2017-Oct-11 19:35N 48°25' W 122°45'1 8.5
2017-Oct-11 19:28N 48°26' W 122°45'4 8.1
2017-Oct-11 18:59N 48°29' W 122°43'4 7.5
2017-Oct-11 18:30N 48°32' W 122°40'4 7.6
2017-Oct-11 18:00N 48°36' W 122°39'4 8.2
2017-Oct-11 17:30N 48°39' W 122°34'5 8.2
2017-Oct-11 16:52N 48°44' W 122°32'43 2.1
2017-Oct-10 20:25N 48°00' W 122°36'410.1
2017-Oct-10 20:00N 47°57' W 122°32'4 8.8
2017-Oct-10 19:30N 47°54' W 122°28'4 8.9
2017-Oct-10 19:00N 47°49' W 122°27'4 8.8
2017-Oct-10 18:30N 47°45' W 122°26'4 8.9
2017-Oct-10 18:00N 47°41' W 122°27'4 8.6
2017-Oct-10 17:30N 47°37' W 122°24'2 4.3
2017-Oct-10 17:00N 47°36' W 122°21'2 3.4
2017-Oct-10 16:30N 47°34' W 122°21'0 0.5
2017-Oct-10 16:00N 47°34' W 122°21'0 0.0
2017-Oct-09 21:48N 47°34' W 122°21'1 3.4
2017-Oct-09 21:30N 47°35' W 122°22'0 0.8
2017-Oct-09 21:00N 47°35' W 122°21'0 0.1
2017-Oct-09 20:30N 47°35' W 122°21'0 0.0
2017-Oct-09 20:00N 47°35' W 122°21'0 0.0
2017-Oct-09 19:30N 47°35' W 122°21'0 0.0
2017-Oct-09 19:00N 47°35' W 122°21'1 2.0
2017-Oct-09 18:26N 47°34' W 122°21'0 0.7
2017-Oct-09 18:00N 47°34' W 122°21'1 2.1
2017-Oct-09 17:30N 47°35' W 122°21'1 2.5
2017-Oct-09 17:00N 47°36' W 122°23'3 5.9
2017-Oct-09 16:30N 47°38' W 122°26'4 7.2
2017-Oct-09 16:00N 47°41' W 122°28'4 8.1
2017-Oct-09 15:30N 47°45' W 122°27'4 8.0
2017-Oct-09 15:00N 47°49' W 122°28'4 8.6
2017-Oct-09 14:30N 47°53' W 122°30'27 8.8
2017-Oct-09 11:25N 48°12' W 122°60'4 9.7
2017-Oct-09 10:59N 48°12' W 123°06'4 8.9
2017-Oct-09 10:29N 48°11' W 123°12'4 8.3
2017-Oct-09 10:00N 48°09' W 123°18'4 8.7
2017-Oct-09 09:30N 48°08' W 123°24'1 2.4
2017-Oct-09 09:00N 48°08' W 123°26'0 0.9
2017-Oct-09 08:30N 48°08' W 123°26'0 0.0
2017-Oct-09 08:00N 48°08' W 123°26'0 0.0
2017-Oct-09 07:30N 48°08' W 123°26'0 0.1
2017-Oct-09 07:00N 48°08' W 123°26'0 0.2
2017-Oct-09 06:30N 48°08' W 123°26'0 0.0
2017-Oct-09 03:01N 48°08' W 123°26'0 0.1
2017-Oct-09 02:37N 48°08' W 123°26'0 0.1
2017-Oct-09 02:27N 48°08' W 123°26'0 0.0
2017-Oct-09 02:00N 48°08' W 123°26'0 0.0
2017-Oct-09 01:30N 48°08' W 123°26'0 0.0
2017-Oct-09 01:00N 48°08' W 123°26'0 0.0
2017-Oct-09 00:30N 48°08' W 123°26'0 0.0
2017-Oct-08 23:59N 48°08' W 123°26'0 0.2
2017-Oct-08 23:29N 48°08' W 123°26'0 0.6
2017-Oct-08 23:00N 48°08' W 123°26'1 1.3
2017-Oct-08 22:30N 48°08' W 123°25'1 2.7
2017-Oct-08 21:59N 48°08' W 123°23'1 2.7
2017-Oct-08 21:30N 48°08' W 123°21'3 6.2
2017-Oct-08 21:00N 48°09' W 123°17'4 7.6
2017-Oct-08 20:30N 48°11' W 123°12'26 6.9
2017-Oct-08 16:42N 48°00' W 122°36'2 8.3
2017-Oct-08 16:30N 47°59' W 122°35'4 8.1
2017-Oct-08 16:00N 47°56' W 122°30'3 7.0
2017-Oct-08 15:30N 47°53' W 122°28'4 7.7
2017-Oct-08 15:00N 47°49' W 122°27'4 7.5
2017-Oct-08 14:30N 47°46' W 122°26'4 7.2
2017-Oct-08 14:00N 47°42' W 122°26'3 6.7
2017-Oct-08 13:30N 47°39' W 122°27'4 7.0
2017-Oct-08 13:00N 47°35' W 122°27'3 6.7
2017-Oct-08 12:30N 47°32' W 122°25'3 6.2
2017-Oct-08 12:00N 47°29' W 122°24'3 6.6
2017-Oct-08 11:30N 47°26' W 122°23'3 6.4
2017-Oct-08 11:00N 47°23' W 122°21'3 6.8
2017-Oct-08 10:30N 47°21' W 122°25'3 6.5
2017-Oct-08 10:00N 47°18' W 122°27'1 2.4
2017-Oct-08 09:30N 47°17' W 122°26'  
Track history (hours):
 
Tides and Currents Weather Stations Pressure Air Temp Water Temp Dewpoint Dewpoint Depression Visibility Wind Speed Wind Dir Waves Ship Positions

Bearcat

Owner: WESTAR MARINE SERVICE, SAN FRANCISCO, CA. More information available from US FCC via Universal Licensing System and Coast Guard Vessel Documentation Center.

Last reported at 2017-Oct-18 02:00 UTC. Time now 2017-Oct-18 02:23 UTC.
Position N 47°54' W 122°28'.

; draft 2.7 m.

Type: Towing. MMSI: 366969780.

Date/timePositionNaut miles runAvg speedWind from/ knotsBaromVisibWave heightAir tempDewpointWater temp
2017-Oct-18 02:00N 47°54' W 122°28'5 9.2
2017-Oct-18 01:30N 47°49' W 122°27'4 8.2
2017-Oct-18 01:00N 47°45' W 122°26'4 7.8
2017-Oct-18 00:30N 47°41' W 122°27'4 7.3
2017-Oct-18 00:00N 47°38' W 122°25'3 6.2
2017-Oct-17 23:30N 47°36' W 122°22'1 1.3
2017-Oct-17 23:00N 47°35' W 122°21'1 2.4
2017-Oct-17 22:30N 47°34' W 122°21'0 0.0
2017-Oct-17 22:00N 47°34' W 122°21'  
2017-Oct-15 04:49N 47°34' W 122°21'1 4.1
2017-Oct-15 04:31N 47°35' W 122°21'1 1.1
2017-Oct-15 04:00N 47°36' W 122°22'3 5.2
2017-Oct-15 03:30N 47°37' W 122°25'4 7.9
2017-Oct-15 03:00N 47°40' W 122°28'4 7.9
2017-Oct-15 02:31N 47°44' W 122°27'4 8.0
2017-Oct-15 02:01N 47°48' W 122°28'4 7.8
2017-Oct-15 01:30N 47°52' W 122°29'4 7.0
2017-Oct-15 01:00N 47°55' W 122°31'3 6.4
2017-Oct-15 00:30N 47°57' W 122°35'26 6.5
2017-Oct-14 20:29N 48°22' W 122°46'4 7.3
2017-Oct-14 19:58N 48°26' W 122°44'3 6.5
2017-Oct-14 19:31N 48°29' W 122°44'3 5.7
2017-Oct-14 18:58N 48°32' W 122°41'2 5.4
2017-Oct-14 18:31N 48°34' W 122°40'3 5.3
2017-Oct-14 18:01N 48°36' W 122°38'7 7.3
2017-Oct-14 16:59N 48°43' W 122°33'1 2.4
2017-Oct-14 16:30N 48°44' W 122°33'1 2.1
2017-Oct-14 16:00N 48°44' W 122°31'1 1.6
2017-Oct-14 15:23N 48°44' W 122°32'0 0.0
2017-Oct-14 14:44N 48°44' W 122°32'0 0.2
2017-Oct-14 14:30N 48°44' W 122°33'0 0.0
2017-Oct-14 13:51N 48°44' W 122°33'0 0.0
2017-Oct-14 13:22N 48°44' W 122°33'0 0.1
2017-Oct-14 12:55N 48°44' W 122°32'0 0.1
2017-Oct-14 12:25N 48°44' W 122°32'1 1.5
2017-Oct-14 11:59N 48°44' W 122°31'1 1.2
2017-Oct-14 11:23N 48°44' W 122°32'0 0.3
2017-Oct-14 11:00N 48°44' W 122°33'4 4.4
2017-Oct-14 10:02N 48°40' W 122°33'0 1.0
2017-Oct-14 09:55N 48°40' W 122°33'1 2.7
2017-Oct-14 09:29N 48°39' W 122°33'3 7.4
2017-Oct-14 09:00N 48°37' W 122°38'4 7.1
2017-Oct-14 08:30N 48°34' W 122°40'4 7.3
2017-Oct-14 08:00N 48°31' W 122°43'3 6.5
2017-Oct-14 07:31N 48°28' W 122°44'5 8.1
2017-Oct-14 06:54N 48°23' W 122°45'24 7.2
2017-Oct-14 03:31N 47°59' W 122°35'1 8.9
2017-Oct-14 03:26N 47°59' W 122°34'3 8.0
2017-Oct-14 03:00N 47°56' W 122°31'4 8.4
2017-Oct-14 02:30N 47°53' W 122°28'4 8.7
2017-Oct-14 02:00N 47°49' W 122°26'5 8.7
2017-Oct-14 01:28N 47°44' W 122°26'4 8.7
2017-Oct-14 01:00N 47°40' W 122°27'4 8.1
2017-Oct-14 00:28N 47°36' W 122°23'2 3.2
2017-Oct-13 23:58N 47°35' W 122°21'0 0.5
2017-Oct-13 23:23N 47°35' W 122°22'1 3.1
2017-Oct-13 23:00N 47°34' W 122°21'0 0.0
2017-Oct-12 23:39N 47°34' W 122°21'0 0.6
2017-Oct-12 23:30N 47°34' W 122°21'1 2.4
2017-Oct-12 23:00N 47°35' W 122°21'0 0.0
2017-Oct-12 22:30N 47°35' W 122°21'0 0.0
2017-Oct-12 22:01N 47°35' W 122°21'0 0.0
2017-Oct-12 21:30N 47°35' W 122°21'1 2.4
2017-Oct-12 21:00N 47°34' W 122°21'0 0.8
2017-Oct-12 20:29N 47°34' W 122°21'0 0.0
2017-Oct-12 19:59N 47°34' W 122°21'0 0.0
2017-Oct-12 19:28N 47°34' W 122°21'0 0.0
2017-Oct-12 19:00N 47°34' W 122°21'0 0.0
2017-Oct-12 18:30N 47°34' W 122°21'0 0.0
2017-Oct-12 18:01N 47°34' W 122°21'0 0.0
2017-Oct-12 17:30N 47°34' W 122°21'0 0.0
2017-Oct-12 17:01N 47°34' W 122°21'0 0.0
2017-Oct-12 16:30N 47°34' W 122°21'0 0.0
2017-Oct-12 16:00N 47°34' W 122°21'0 0.0
2017-Oct-12 15:30N 47°34' W 122°21'0 0.0
2017-Oct-12 15:00N 47°34' W 122°21'0 0.0
2017-Oct-12 14:28N 47°34' W 122°21'0 0.0
2017-Oct-12 13:58N 47°34' W 122°21'0 0.9
2017-Oct-12 13:30N 47°34' W 122°21'1 2.4
2017-Oct-12 13:00N 47°35' W 122°21'0 0.0
2017-Oct-12 12:31N 47°35' W 122°21'1 1.3
2017-Oct-12 12:01N 47°35' W 122°22'1 0.1
2017-Oct-12 04:14N 47°34' W 122°21'0 1.3
2017-Oct-12 04:00N 47°34' W 122°21'1 2.1
2017-Oct-12 03:30N 47°35' W 122°21'1 1.9
2017-Oct-12 03:00N 47°36' W 122°22'1 2.6
2017-Oct-12 02:30N 47°37' W 122°24'4 8.2
2017-Oct-12 02:00N 47°40' W 122°28'4 8.3
2017-Oct-12 01:30N 47°44' W 122°28'4 8.4
2017-Oct-12 01:00N 47°48' W 122°28'4 8.5
2017-Oct-12 00:30N 47°52' W 122°29'4 8.0
2017-Oct-12 00:00N 47°56' W 122°31'30 6.9
2017-Oct-11 19:35N 48°25' W 122°45'1 8.5
2017-Oct-11 19:28N 48°26' W 122°45'4 8.1
2017-Oct-11 18:59N 48°29' W 122°43'4 7.5
2017-Oct-11 18:30N 48°32' W 122°40'4 7.6
2017-Oct-11 18:00N 48°36' W 122°39'4 8.2
2017-Oct-11 17:30N 48°39' W 122°34'5 8.2
2017-Oct-11 16:52N 48°44' W 122°32'43 2.1
2017-Oct-10 20:25N 48°00' W 122°36'410.1
2017-Oct-10 20:00N 47°57' W 122°32'4 8.8
2017-Oct-10 19:30N 47°54' W 122°28'4 8.9
2017-Oct-10 19:00N 47°49' W 122°27'4 8.8
2017-Oct-10 18:30N 47°45' W 122°26'4 8.9
2017-Oct-10 18:00N 47°41' W 122°27'4 8.6
2017-Oct-10 17:30N 47°37' W 122°24'2 4.3
2017-Oct-10 17:00N 47°36' W 122°21'2 3.4
2017-Oct-10 16:30N 47°34' W 122°21'0 0.5
2017-Oct-10 16:00N 47°34' W 122°21'0 0.0
2017-Oct-09 21:48N 47°34' W 122°21'1 3.4
2017-Oct-09 21:30N 47°35' W 122°22'0 0.8
2017-Oct-09 21:00N 47°35' W 122°21'0 0.1
2017-Oct-09 20:30N 47°35' W 122°21'0 0.0
2017-Oct-09 20:00N 47°35' W 122°21'0 0.0
2017-Oct-09 19:30N 47°35' W 122°21'0 0.0
2017-Oct-09 19:00N 47°35' W 122°21'1 2.0
2017-Oct-09 18:26N 47°34' W 122°21'0 0.7
2017-Oct-09 18:00N 47°34' W 122°21'1 2.1
2017-Oct-09 17:30N 47°35' W 122°21'1 2.5
2017-Oct-09 17:00N 47°36' W 122°23'3 5.9
2017-Oct-09 16:30N 47°38' W 122°26'4 7.2
2017-Oct-09 16:00N 47°41' W 122°28'4 8.1
2017-Oct-09 15:30N 47°45' W 122°27'4 8.0
2017-Oct-09 15:00N 47°49' W 122°28'4 8.6
2017-Oct-09 14:30N 47°53' W 122°30'27 8.8
2017-Oct-09 11:25N 48°12' W 122°60'4 9.7
2017-Oct-09 10:59N 48°12' W 123°06'4 8.9
2017-Oct-09 10:29N 48°11' W 123°12'4 8.3
2017-Oct-09 10:00N 48°09' W 123°18'4 8.7
2017-Oct-09 09:30N 48°08' W 123°24'1 2.4
2017-Oct-09 09:00N 48°08' W 123°26'0 0.9
2017-Oct-09 08:30N 48°08' W 123°26'0 0.0
2017-Oct-09 08:00N 48°08' W 123°26'0 0.0
2017-Oct-09 07:30N 48°08' W 123°26'0 0.1
2017-Oct-09 07:00N 48°08' W 123°26'0 0.2
2017-Oct-09 06:30N 48°08' W 123°26'0 0.0
2017-Oct-09 03:01N 48°08' W 123°26'0 0.1
2017-Oct-09 02:37N 48°08' W 123°26'0 0.1
2017-Oct-09 02:27N 48°08' W 123°26'0 0.0
2017-Oct-09 02:00N 48°08' W 123°26'0 0.0
2017-Oct-09 01:30N 48°08' W 123°26'0 0.0
2017-Oct-09 01:00N 48°08' W 123°26'0 0.0
2017-Oct-09 00:30N 48°08' W 123°26'0 0.0
2017-Oct-08 23:59N 48°08' W 123°26'0 0.2
2017-Oct-08 23:29N 48°08' W 123°26'0 0.6
2017-Oct-08 23:00N 48°08' W 123°26'1 1.3
2017-Oct-08 22:30N 48°08' W 123°25'1 2.7
2017-Oct-08 21:59N 48°08' W 123°23'1 2.7
2017-Oct-08 21:30N 48°08' W 123°21'3 6.2
2017-Oct-08 21:00N 48°09' W 123°17'4 7.6
2017-Oct-08 20:30N 48°11' W 123°12'26 6.9
2017-Oct-08 16:42N 48°00' W 122°36'2 8.3
2017-Oct-08 16:30N 47°59' W 122°35'4 8.1
2017-Oct-08 16:00N 47°56' W 122°30'3 7.0
2017-Oct-08 15:30N 47°53' W 122°28'4 7.7
2017-Oct-08 15:00N 47°49' W 122°27'4 7.5
2017-Oct-08 14:30N 47°46' W 122°26'4 7.2
2017-Oct-08 14:00N 47°42' W 122°26'3 6.7
2017-Oct-08 13:30N 47°39' W 122°27'4 7.0
2017-Oct-08 13:00N 47°35' W 122°27'3 6.7
2017-Oct-08 12:30N 47°32' W 122°25'3 6.2
2017-Oct-08 12:00N 47°29' W 122°24'3 6.6
2017-Oct-08 11:30N 47°26' W 122°23'3 6.4
2017-Oct-08 11:00N 47°23' W 122°21'3 6.8
2017-Oct-08 10:30N 47°21' W 122°25'3 6.5
2017-Oct-08 10:00N 47°18' W 122°27'1 2.4
2017-Oct-08 09:30N 47°17' W 122°26'  

Dump ship's entire track history